Aeroporto :
LOGIN :

Iscrizione | Disclaimer

   EN    FR    IT 

 










Sommario :    VFR   VFR Marginale   IFR   IFR Intensivo   IFR Molto Intensivo
Visibilità : 
Base nubi : 
>= 8 km
>= 3000ft
5 / 8 km
1000 / 3000 ft
1500m / 5 km
500 / 1000 ft
800 / 1500m
200 / 500 ft
< 800m
< 200 ft
Simboli :   Temporali  Nebbia  Neve Forte  Precipitazioni Forti  Vento > 20 kt
SIGMETs :   Varie  Temporali  Ghiacco  Turbolenza  Onda orograficha  Ceneri Vulcaniche







- Altitudine del aeroporto : 194 ft


EBCV - Chièvres

ULTIMO METAR :
  • 240645Z AUTO 02007KT 9999 SCT011/// 14/10 Q1025 GRN

METARs OBSOLETI :
  • 240625Z AUTO 02005KT 9999 FEW011/// 14/11 Q1025 BLU
  • 240555Z AUTO 02003KT 9999 NCD 13/10 Q1025 BLU
  • 240525Z AUTO 00000KT 9999 NCD 12/10 Q1024 BLU
  • 240455Z AUTO VRB01KT 9999 NCD 10/09 Q1024 BLU
  • 240425Z AUTO VRB01KT 9000 NCD 09/08 Q1024 BLU
  • 240355Z AUTO VRB01KT 8000 NCD 09/08 Q1024 BLU

TAF TAF EBCV
Valido dal 24 a 07 ore il 24 a 16 ore UTC


240541Z 2407/2416 36003KT 9999 SCT015
BECMG 2408/2410 36008KT 9999 BKN020 BY EBWM
Nessun NOTAM noto per questo aeroporto.



MetMap, La meteo Aeronautica in un colpo d'occhio ! - Copyright ORBIFLY Dicembre 2007 - Disclaimer

ORBIFLY MET'MAP TEAM :

Programmazione e sviluppo : Alexandra Zaïnal
Concezione e sviluppo : Baudouin d'Aumeries
Co-Programmazione e sviluppo : Marc-Olivier Méhu
Supporto tecnico e logistico : Manuel Goepfert
Aiuto per la traduzione : Arnaldo La Scala

Contatto : metmap@orbifly.com




FONTI E CREDITI :

   NOAA